sensor_id;sensor_type;location;lat;lon;timestamp;P1;durP1;ratioP1;P2;durP2;ratioP2
78072;SDS011;67281;48.770;11.440;2023-05-07T00:01:39;7.53;;;3.90;;
78072;SDS011;67281;48.770;11.440;2023-05-07T00:04:06;6.90;;;3.80;;
78072;SDS011;67281;48.770;11.440;2023-05-07T00:06:34;6.47;;;3.50;;
78072;SDS011;67281;48.770;11.440;2023-05-07T00:09:01;5.17;;;3.07;;
78072;SDS011;67281;48.770;11.440;2023-05-07T00:11:28;3.73;;;3.30;;
78072;SDS011;67281;48.770;11.440;2023-05-07T00:13:55;5.33;;;2.93;;
78072;SDS011;67281;48.770;11.440;2023-05-07T00:16:22;3.53;;;2.83;;
78072;SDS011;67281;48.770;11.440;2023-05-07T00:18:49;4.67;;;2.77;;
78072;SDS011;67281;48.770;11.440;2023-05-07T00:21:16;4.73;;;3.40;;
78072;SDS011;67281;48.770;11.440;2023-05-07T00:23:42;4.70;;;3.80;;
78072;SDS011;67281;48.770;11.440;2023-05-07T00:26:09;4.50;;;3.53;;
78072;SDS011;67281;48.770;11.440;2023-05-07T00:28:36;7.03;;;3.80;;
78072;SDS011;67281;48.770;11.440;2023-05-07T00:31:03;3.63;;;3.33;;
78072;SDS011;67281;48.770;11.440;2023-05-07T00:33:30;4.43;;;3.70;;
78072;SDS011;67281;48.770;11.440;2023-05-07T00:35:56;5.90;;;3.37;;
78072;SDS011;67281;48.770;11.440;2023-05-07T00:38:23;4.23;;;3.57;;
78072;SDS011;67281;48.770;11.440;2023-05-07T00:40:50;6.23;;;3.37;;
78072;SDS011;67281;48.770;11.440;2023-05-07T00:43:17;4.10;;;3.43;;
78072;SDS011;67281;48.770;11.440;2023-05-07T00:45:44;5.00;;;3.83;;
78072;SDS011;67281;48.770;11.440;2023-05-07T00:48:11;5.93;;;3.70;;
78072;SDS011;67281;48.770;11.440;2023-05-07T00:50:40;6.20;;;3.27;;
78072;SDS011;67281;48.770;11.440;2023-05-07T00:53:07;5.50;;;3.67;;
78072;SDS011;67281;48.770;11.440;2023-05-07T00:55:34;6.77;;;3.13;;
78072;SDS011;67281;48.770;11.440;2023-05-07T00:58:02;5.43;;;3.50;;
78072;SDS011;67281;48.770;11.440;2023-05-07T01:00:29;5.80;;;3.43;;
78072;SDS011;67281;48.770;11.440;2023-05-07T01:02:55;3.50;;;3.20;;
78072;SDS011;67281;48.770;11.440;2023-05-07T01:05:23;3.27;;;2.97;;
78072;SDS011;67281;48.770;11.440;2023-05-07T01:07:52;4.00;;;3.57;;
78072;SDS011;67281;48.770;11.440;2023-05-07T01:10:21;6.03;;;3.27;;
78072;SDS011;67281;48.770;11.440;2023-05-07T01:12:48;4.43;;;3.30;;
78072;SDS011;67281;48.770;11.440;2023-05-07T01:15:16;4.40;;;3.30;;
78072;SDS011;67281;48.770;11.440;2023-05-07T01:17:44;4.83;;;3.27;;
78072;SDS011;67281;48.770;11.440;2023-05-07T01:20:11;3.47;;;3.17;;
78072;SDS011;67281;48.770;11.440;2023-05-07T01:22:39;3.67;;;2.90;;
78072;SDS011;67281;48.770;11.440;2023-05-07T01:25:07;3.63;;;2.73;;
78072;SDS011;67281;48.770;11.440;2023-05-07T01:27:34;2.97;;;2.77;;
78072;SDS011;67281;48.770;11.440;2023-05-07T01:30:03;4.20;;;2.97;;
78072;SDS011;67281;48.770;11.440;2023-05-07T01:35:18;5.90;;;2.90;;
78072;SDS011;67281;48.770;11.440;2023-05-07T01:37:47;5.27;;;2.97;;
78072;SDS011;67281;48.770;11.440;2023-05-07T01:40:14;3.63;;;2.40;;
78072;SDS011;67281;48.770;11.440;2023-05-07T01:42:42;2.83;;;2.43;;
78072;SDS011;67281;48.770;11.440;2023-05-07T01:45:10;3.77;;;2.73;;
78072;SDS011;67281;48.770;11.440;2023-05-07T01:47:37;5.10;;;2.70;;
78072;SDS011;67281;48.770;11.440;2023-05-07T01:50:06;3.73;;;2.73;;
78072;SDS011;67281;48.770;11.440;2023-05-07T01:52:36;6.10;;;3.50;;
78072;SDS011;67281;48.770;11.440;2023-05-07T01:55:05;3.40;;;2.83;;
78072;SDS011;67281;48.770;11.440;2023-05-07T01:57:32;3.77;;;2.90;;
78072;SDS011;67281;48.770;11.440;2023-05-07T01:59:59;3.80;;;3.00;;
78072;SDS011;67281;48.770;11.440;2023-05-07T02:02:26;3.43;;;3.13;;
78072;SDS011;67281;48.770;11.440;2023-05-07T02:04:53;5.90;;;3.00;;
78072;SDS011;67281;48.770;11.440;2023-05-07T02:07:20;4.23;;;3.40;;
78072;SDS011;67281;48.770;11.440;2023-05-07T02:09:46;3.53;;;2.90;;
78072;SDS011;67281;48.770;11.440;2023-05-07T02:12:13;3.60;;;2.70;;
78072;SDS011;67281;48.770;11.440;2023-05-07T02:14:40;5.93;;;3.00;;
78072;SDS011;67281;48.770;11.440;2023-05-07T02:17:07;3.73;;;2.73;;
78072;SDS011;67281;48.770;11.440;2023-05-07T02:19:34;3.50;;;3.17;;
78072;SDS011;67281;48.770;11.440;2023-05-07T02:22:01;4.47;;;2.80;;
78072;SDS011;67281;48.770;11.440;2023-05-07T02:24:28;5.67;;;2.97;;
78072;SDS011;67281;48.770;11.440;2023-05-07T02:26:55;3.60;;;3.30;;
78072;SDS011;67281;48.770;11.440;2023-05-07T02:29:21;3.30;;;3.00;;
78072;SDS011;67281;48.770;11.440;2023-05-07T02:31:48;4.40;;;3.23;;
78072;SDS011;67281;48.770;11.440;2023-05-07T02:34:19;3.83;;;3.50;;
78072;SDS011;67281;48.770;11.440;2023-05-07T02:36:46;3.93;;;3.53;;
78072;SDS011;67281;48.770;11.440;2023-05-07T02:39:13;3.97;;;3.20;;
78072;SDS011;67281;48.770;11.440;2023-05-07T02:41:40;3.70;;;3.40;;
78072;SDS011;67281;48.770;11.440;2023-05-07T02:44:07;3.73;;;3.20;;
78072;SDS011;67281;48.770;11.440;2023-05-07T02:46:34;4.27;;;3.87;;
78072;SDS011;67281;48.770;11.440;2023-05-07T02:49:01;5.07;;;3.50;;
78072;SDS011;67281;48.770;11.440;2023-05-07T02:51:30;5.43;;;3.70;;
78072;SDS011;67281;48.770;11.440;2023-05-07T02:53:57;4.90;;;4.27;;
78072;SDS011;67281;48.770;11.440;2023-05-07T02:56:25;4.27;;;3.87;;
78072;SDS011;67281;48.770;11.440;2023-05-07T02:58:53;6.83;;;4.27;;
78072;SDS011;67281;48.770;11.440;2023-05-07T03:01:19;5.07;;;3.80;;
78072;SDS011;67281;48.770;11.440;2023-05-07T03:03:47;3.70;;;3.40;;
78072;SDS011;67281;48.770;11.440;2023-05-07T03:06:14;6.33;;;4.30;;
78072;SDS011;67281;48.770;11.440;2023-05-07T03:08:41;3.87;;;3.47;;
78072;SDS011;67281;48.770;11.440;2023-05-07T03:11:08;3.40;;;2.93;;
78072;SDS011;67281;48.770;11.440;2023-05-07T03:13:35;4.73;;;2.90;;
78072;SDS011;67281;48.770;11.440;2023-05-07T03:16:02;5.57;;;3.17;;
78072;SDS011;67281;48.770;11.440;2023-05-07T03:18:29;4.83;;;2.83;;
78072;SDS011;67281;48.770;11.440;2023-05-07T03:20:55;3.33;;;2.53;;
78072;SDS011;67281;48.770;11.440;2023-05-07T03:23:22;3.77;;;2.87;;
78072;SDS011;67281;48.770;11.440;2023-05-07T03:25:50;4.13;;;2.83;;
78072;SDS011;67281;48.770;11.440;2023-05-07T03:28:17;4.13;;;2.77;;
78072;SDS011;67281;48.770;11.440;2023-05-07T03:30:44;2.93;;;2.50;;
78072;SDS011;67281;48.770;11.440;2023-05-07T03:33:11;4.87;;;3.00;;
78072;SDS011;67281;48.770;11.440;2023-05-07T03:35:38;7.83;;;3.80;;
78072;SDS011;67281;48.770;11.440;2023-05-07T03:38:04;2.67;;;2.43;;
78072;SDS011;67281;48.770;11.440;2023-05-07T03:40:31;3.93;;;2.97;;
78072;SDS011;67281;48.770;11.440;2023-05-07T03:42:59;2.83;;;2.63;;
78072;SDS011;67281;48.770;11.440;2023-05-07T03:45:26;2.67;;;2.47;;
78072;SDS011;67281;48.770;11.440;2023-05-07T03:47:53;3.13;;;2.70;;
78072;SDS011;67281;48.770;11.440;2023-05-07T03:50:19;3.40;;;3.10;;
78072;SDS011;67281;48.770;11.440;2023-05-07T03:52:46;4.03;;;3.17;;
78072;SDS011;67281;48.770;11.440;2023-05-07T03:55:13;4.37;;;3.17;;
78072;SDS011;67281;48.770;11.440;2023-05-07T03:57:40;4.97;;;2.93;;
78072;SDS011;67281;48.770;11.440;2023-05-07T04:00:07;3.23;;;2.93;;
78072;SDS011;67281;48.770;11.440;2023-05-07T04:02:35;4.23;;;2.80;;
78072;SDS011;67281;48.770;11.440;2023-05-07T04:05:02;3.67;;;2.90;;
78072;SDS011;67281;48.770;11.440;2023-05-07T04:07:29;4.43;;;3.37;;
78072;SDS011;67281;48.770;11.440;2023-05-07T04:09:56;6.03;;;3.43;;
78072;SDS011;67281;48.770;11.440;2023-05-07T04:12:23;4.03;;;3.37;;
78072;SDS011;67281;48.770;11.440;2023-05-07T04:14:53;5.00;;;3.57;;
78072;SDS011;67281;48.770;11.440;2023-05-07T04:17:20;4.13;;;3.47;;
78072;SDS011;67281;48.770;11.440;2023-05-07T04:19:47;3.23;;;2.93;;
78072;SDS011;67281;48.770;11.440;2023-05-07T04:22:13;4.70;;;3.67;;
78072;SDS011;67281;48.770;11.440;2023-05-07T04:24:40;4.70;;;3.20;;
78072;SDS011;67281;48.770;11.440;2023-05-07T04:27:07;3.60;;;3.13;;
78072;SDS011;67281;48.770;11.440;2023-05-07T04:29:34;4.47;;;3.40;;
78072;SDS011;67281;48.770;11.440;2023-05-07T04:32:01;4.37;;;3.37;;
78072;SDS011;67281;48.770;11.440;2023-05-07T04:34:28;4.33;;;3.80;;
78072;SDS011;67281;48.770;11.440;2023-05-07T04:36:57;3.90;;;3.50;;
78072;SDS011;67281;48.770;11.440;2023-05-07T04:39:25;3.77;;;3.20;;
78072;SDS011;67281;48.770;11.440;2023-05-07T04:41:52;3.97;;;3.67;;
78072;SDS011;67281;48.770;11.440;2023-05-07T04:44:18;4.10;;;3.60;;
78072;SDS011;67281;48.770;11.440;2023-05-07T04:46:45;4.33;;;3.93;;
78072;SDS011;67281;48.770;11.440;2023-05-07T04:49:12;4.30;;;3.20;;
78072;SDS011;67281;48.770;11.440;2023-05-07T04:51:39;7.97;;;7.07;;
78072;SDS011;67281;48.770;11.440;2023-05-07T04:54:10;7.73;;;6.93;;
78072;SDS011;67281;48.770;11.440;2023-05-07T04:56:37;5.53;;;3.83;;
78072;SDS011;67281;48.770;11.440;2023-05-07T04:59:03;3.90;;;3.50;;
78072;SDS011;67281;48.770;11.440;2023-05-07T05:01:30;4.37;;;3.97;;
78072;SDS011;67281;48.770;11.440;2023-05-07T05:03:58;6.97;;;6.27;;
78072;SDS011;67281;48.770;11.440;2023-05-07T05:06:26;5.30;;;4.80;;
78072;SDS011;67281;48.770;11.440;2023-05-07T05:08:53;5.17;;;4.50;;
78072;SDS011;67281;48.770;11.440;2023-05-07T05:11:20;7.17;;;4.93;;
78072;SDS011;67281;48.770;11.440;2023-05-07T05:13:47;5.43;;;4.50;;
78072;SDS011;67281;48.770;11.440;2023-05-07T05:16:15;5.83;;;4.50;;
78072;SDS011;67281;48.770;11.440;2023-05-07T05:18:42;5.70;;;4.33;;
78072;SDS011;67281;48.770;11.440;2023-05-07T05:21:09;4.93;;;4.43;;
78072;SDS011;67281;48.770;11.440;2023-05-07T05:23:36;5.97;;;4.77;;
78072;SDS011;67281;48.770;11.440;2023-05-07T05:26:03;4.87;;;4.37;;
78072;SDS011;67281;48.770;11.440;2023-05-07T05:28:30;4.97;;;4.53;;
78072;SDS011;67281;48.770;11.440;2023-05-07T05:30:56;4.90;;;4.33;;
78072;SDS011;67281;48.770;11.440;2023-05-07T05:33:23;5.73;;;4.47;;
78072;SDS011;67281;48.770;11.440;2023-05-07T05:35:50;8.53;;;5.43;;
78072;SDS011;67281;48.770;11.440;2023-05-07T05:38:17;4.77;;;4.37;;
78072;SDS011;67281;48.770;11.440;2023-05-07T05:40:44;5.43;;;4.93;;
78072;SDS011;67281;48.770;11.440;2023-05-07T05:43:11;5.20;;;4.70;;
78072;SDS011;67281;48.770;11.440;2023-05-07T05:45:38;5.57;;;4.83;;
78072;SDS011;67281;48.770;11.440;2023-05-07T05:48:04;5.90;;;5.40;;
78072;SDS011;67281;48.770;11.440;2023-05-07T05:50:32;6.03;;;5.20;;
78072;SDS011;67281;48.770;11.440;2023-05-07T05:52:58;6.17;;;5.57;;
78072;SDS011;67281;48.770;11.440;2023-05-07T05:55:25;6.73;;;6.07;;
78072;SDS011;67281;48.770;11.440;2023-05-07T05:57:52;8.70;;;5.93;;
78072;SDS011;67281;48.770;11.440;2023-05-07T06:00:19;6.80;;;5.53;;
78072;SDS011;67281;48.770;11.440;2023-05-07T06:02:48;5.70;;;5.20;;
78072;SDS011;67281;48.770;11.440;2023-05-07T06:05:15;9.00;;;5.43;;
78072;SDS011;67281;48.770;11.440;2023-05-07T06:07:42;8.10;;;4.93;;
78072;SDS011;67281;48.770;11.440;2023-05-07T06:10:09;5.43;;;4.93;;
78072;SDS011;67281;48.770;11.440;2023-05-07T06:12:37;6.30;;;4.70;;
78072;SDS011;67281;48.770;11.440;2023-05-07T06:15:04;5.00;;;4.47;;
78072;SDS011;67281;48.770;11.440;2023-05-07T06:17:31;4.57;;;3.87;;
78072;SDS011;67281;48.770;11.440;2023-05-07T06:19:58;6.13;;;4.80;;
78072;SDS011;67281;48.770;11.440;2023-05-07T06:22:25;6.30;;;4.47;;
78072;SDS011;67281;48.770;11.440;2023-05-07T06:24:51;5.00;;;4.30;;
78072;SDS011;67281;48.770;11.440;2023-05-07T06:27:18;5.63;;;4.57;;
78072;SDS011;67281;48.770;11.440;2023-05-07T06:29:47;4.70;;;4.30;;
78072;SDS011;67281;48.770;11.440;2023-05-07T06:32:14;5.90;;;5.30;;
78072;SDS011;67281;48.770;11.440;2023-05-07T06:34:41;5.50;;;5.00;;
78072;SDS011;67281;48.770;11.440;2023-05-07T06:37:08;4.80;;;4.40;;
78072;SDS011;67281;48.770;11.440;2023-05-07T06:39:35;8.03;;;5.47;;
78072;SDS011;67281;48.770;11.440;2023-05-07T06:42:02;4.77;;;4.37;;
78072;SDS011;67281;48.770;11.440;2023-05-07T06:44:31;7.63;;;4.73;;
78072;SDS011;67281;48.770;11.440;2023-05-07T06:46:58;4.67;;;4.17;;
78072;SDS011;67281;48.770;11.440;2023-05-07T06:49:25;6.27;;;4.50;;
78072;SDS011;67281;48.770;11.440;2023-05-07T06:51:52;5.40;;;4.90;;
78072;SDS011;67281;48.770;11.440;2023-05-07T06:54:19;5.33;;;4.57;;
78072;SDS011;67281;48.770;11.440;2023-05-07T06:56:47;4.50;;;4.10;;
78072;SDS011;67281;48.770;11.440;2023-05-07T06:59:14;7.97;;;4.83;;
78072;SDS011;67281;48.770;11.440;2023-05-07T07:01:40;5.10;;;4.60;;
78072;SDS011;67281;48.770;11.440;2023-05-07T07:04:07;5.07;;;4.57;;
78072;SDS011;67281;48.770;11.440;2023-05-07T07:06:34;5.00;;;4.60;;
78072;SDS011;67281;48.770;11.440;2023-05-07T07:09:01;5.57;;;4.83;;
78072;SDS011;67281;48.770;11.440;2023-05-07T07:11:28;4.90;;;4.40;;
78072;SDS011;67281;48.770;11.440;2023-05-07T07:13:55;5.13;;;4.70;;
78072;SDS011;67281;48.770;11.440;2023-05-07T07:16:21;5.20;;;4.63;;
78072;SDS011;67281;48.770;11.440;2023-05-07T07:18:48;7.57;;;4.90;;
78072;SDS011;67281;48.770;11.440;2023-05-07T07:21:15;5.30;;;4.57;;
78072;SDS011;67281;48.770;11.440;2023-05-07T07:23:42;5.77;;;5.17;;
78072;SDS011;67281;48.770;11.440;2023-05-07T07:26:09;6.67;;;4.70;;
78072;SDS011;67281;48.770;11.440;2023-05-07T07:28:41;5.70;;;5.13;;
78072;SDS011;67281;48.770;11.440;2023-05-07T07:31:10;5.87;;;4.70;;
78072;SDS011;67281;48.770;11.440;2023-05-07T07:33:38;5.27;;;4.70;;
78072;SDS011;67281;48.770;11.440;2023-05-07T07:36:05;5.03;;;4.53;;
78072;SDS011;67281;48.770;11.440;2023-05-07T07:38:33;6.90;;;4.70;;
78072;SDS011;67281;48.770;11.440;2023-05-07T07:41:00;5.47;;;4.90;;
78072;SDS011;67281;48.770;11.440;2023-05-07T07:43:28;5.10;;;4.60;;
78072;SDS011;67281;48.770;11.440;2023-05-07T07:45:54;5.50;;;4.90;;
78072;SDS011;67281;48.770;11.440;2023-05-07T07:48:21;6.60;;;5.40;;
78072;SDS011;67281;48.770;11.440;2023-05-07T07:50:48;5.03;;;4.53;;
78072;SDS011;67281;48.770;11.440;2023-05-07T07:53:17;5.60;;;5.03;;
78072;SDS011;67281;48.770;11.440;2023-05-07T07:55:44;5.23;;;4.57;;
78072;SDS011;67281;48.770;11.440;2023-05-07T07:58:11;7.07;;;5.30;;
78072;SDS011;67281;48.770;11.440;2023-05-07T08:00:40;6.33;;;5.20;;
78072;SDS011;67281;48.770;11.440;2023-05-07T08:03:10;6.37;;;5.77;;
78072;SDS011;67281;48.770;11.440;2023-05-07T08:05:37;5.70;;;5.03;;
78072;SDS011;67281;48.770;11.440;2023-05-07T08:08:04;6.97;;;5.33;;
78072;SDS011;67281;48.770;11.440;2023-05-07T08:10:32;5.67;;;5.17;;
78072;SDS011;67281;48.770;11.440;2023-05-07T08:13:01;5.67;;;5.10;;
78072;SDS011;67281;48.770;11.440;2023-05-07T08:15:30;5.57;;;5.07;;
78072;SDS011;67281;48.770;11.440;2023-05-07T08:17:57;7.03;;;5.50;;
78072;SDS011;67281;48.770;11.440;2023-05-07T08:20:26;5.87;;;4.97;;
78072;SDS011;67281;48.770;11.440;2023-05-07T08:22:53;5.37;;;4.80;;
78072;SDS011;67281;48.770;11.440;2023-05-07T08:25:20;7.17;;;5.30;;
78072;SDS011;67281;48.770;11.440;2023-05-07T08:27:47;5.27;;;4.77;;
78072;SDS011;67281;48.770;11.440;2023-05-07T08:30:14;6.17;;;4.80;;
78072;SDS011;67281;48.770;11.440;2023-05-07T08:32:41;6.77;;;4.77;;
78072;SDS011;67281;48.770;11.440;2023-05-07T08:35:08;6.07;;;5.50;;
78072;SDS011;67281;48.770;11.440;2023-05-07T08:37:35;5.00;;;4.50;;
78072;SDS011;67281;48.770;11.440;2023-05-07T08:40:02;4.80;;;4.40;;
78072;SDS011;67281;48.770;11.440;2023-05-07T08:42:31;5.40;;;4.90;;
78072;SDS011;67281;48.770;11.440;2023-05-07T08:45:03;6.23;;;5.10;;
78072;SDS011;67281;48.770;11.440;2023-05-07T08:47:39;7.50;;;5.03;;
78072;SDS011;67281;48.770;11.440;2023-05-07T08:50:09;7.93;;;5.30;;
78072;SDS011;67281;48.770;11.440;2023-05-07T08:52:37;6.00;;;4.93;;
78072;SDS011;67281;48.770;11.440;2023-05-07T08:55:06;6.77;;;4.73;;
78072;SDS011;67281;48.770;11.440;2023-05-07T08:57:34;5.67;;;4.93;;
78072;SDS011;67281;48.770;11.440;2023-05-07T09:00:02;7.23;;;4.97;;
78072;SDS011;67281;48.770;11.440;2023-05-07T09:02:30;5.07;;;4.67;;
78072;SDS011;67281;48.770;11.440;2023-05-07T09:04:57;5.20;;;4.70;;
78072;SDS011;67281;48.770;11.440;2023-05-07T09:07:24;5.70;;;5.20;;
78072;SDS011;67281;48.770;11.440;2023-05-07T09:09:52;6.07;;;5.03;;
78072;SDS011;67281;48.770;11.440;2023-05-07T09:12:21;7.77;;;5.20;;
78072;SDS011;67281;48.770;11.440;2023-05-07T09:14:48;10.37;;;6.40;;
78072;SDS011;67281;48.770;11.440;2023-05-07T09:17:16;5.10;;;4.57;;
78072;SDS011;67281;48.770;11.440;2023-05-07T09:19:43;5.60;;;5.00;;
78072;SDS011;67281;48.770;11.440;2023-05-07T09:22:12;7.40;;;4.80;;
78072;SDS011;67281;48.770;11.440;2023-05-07T09:24:39;5.97;;;5.37;;
78072;SDS011;67281;48.770;11.440;2023-05-07T09:27:07;6.20;;;5.60;;
78072;SDS011;67281;48.770;11.440;2023-05-07T09:29:36;5.00;;;4.47;;
78072;SDS011;67281;48.770;11.440;2023-05-07T09:32:05;5.37;;;4.47;;
78072;SDS011;67281;48.770;11.440;2023-05-07T09:34:34;7.23;;;5.27;;
78072;SDS011;67281;48.770;11.440;2023-05-07T09:37:02;4.87;;;4.40;;
78072;SDS011;67281;48.770;11.440;2023-05-07T09:39:43;4.93;;;4.17;;
78072;SDS011;67281;48.770;11.440;2023-05-07T09:42:12;4.23;;;3.83;;
78072;SDS011;67281;48.770;11.440;2023-05-07T09:44:42;4.37;;;3.97;;
78072;SDS011;67281;48.770;11.440;2023-05-07T09:47:10;7.03;;;5.03;;
78072;SDS011;67281;48.770;11.440;2023-05-07T09:49:42;4.43;;;4.03;;
78072;SDS011;67281;48.770;11.440;2023-05-07T09:52:14;5.53;;;4.57;;
78072;SDS011;67281;48.770;11.440;2023-05-07T09:54:42;4.90;;;4.40;;
78072;SDS011;67281;48.770;11.440;2023-05-07T09:57:11;12.03;;;4.73;;
78072;SDS011;67281;48.770;11.440;2023-05-07T09:59:41;5.73;;;4.50;;
78072;SDS011;67281;48.770;11.440;2023-05-07T10:02:09;4.73;;;4.20;;
78072;SDS011;67281;48.770;11.440;2023-05-07T10:04:37;4.03;;;3.70;;
78072;SDS011;67281;48.770;11.440;2023-05-07T10:07:05;5.10;;;3.97;;
78072;SDS011;67281;48.770;11.440;2023-05-07T10:09:35;4.43;;;4.03;;
78072;SDS011;67281;48.770;11.440;2023-05-07T10:12:05;3.80;;;3.40;;
78072;SDS011;67281;48.770;11.440;2023-05-07T10:14:51;4.60;;;3.80;;
78072;SDS011;67281;48.770;11.440;2023-05-07T10:17:20;3.93;;;3.47;;
78072;SDS011;67281;48.770;11.440;2023-05-07T10:19:47;3.57;;;3.27;;
78072;SDS011;67281;48.770;11.440;2023-05-07T10:22:15;3.43;;;3.13;;
78072;SDS011;67281;48.770;11.440;2023-05-07T10:24:44;5.43;;;3.23;;
78072;SDS011;67281;48.770;11.440;2023-05-07T10:27:13;4.17;;;3.50;;
78072;SDS011;67281;48.770;11.440;2023-05-07T10:29:46;4.53;;;3.27;;
78072;SDS011;67281;48.770;11.440;2023-05-07T10:35:10;3.73;;;2.50;;
78072;SDS011;67281;48.770;11.440;2023-05-07T10:37:42;4.67;;;3.00;;
78072;SDS011;67281;48.770;11.440;2023-05-07T10:40:10;3.17;;;2.90;;
78072;SDS011;67281;48.770;11.440;2023-05-07T10:42:38;3.40;;;2.70;;
78072;SDS011;67281;48.770;11.440;2023-05-07T10:45:14;4.73;;;3.30;;
78072;SDS011;67281;48.770;11.440;2023-05-07T10:50:52;4.10;;;2.97;;
78072;SDS011;67281;48.770;11.440;2023-05-07T10:53:46;3.27;;;2.70;;
78072;SDS011;67281;48.770;11.440;2023-05-07T10:58:43;3.00;;;2.73;;
78072;SDS011;67281;48.770;11.440;2023-05-07T11:01:10;3.00;;;2.80;;
78072;SDS011;67281;48.770;11.440;2023-05-07T11:06:39;2.73;;;2.43;;
78072;SDS011;67281;48.770;11.440;2023-05-07T11:09:06;4.03;;;3.03;;
78072;SDS011;67281;48.770;11.440;2023-05-07T11:11:49;4.00;;;2.63;;
78072;SDS011;67281;48.770;11.440;2023-05-07T11:17:10;3.93;;;2.33;;
78072;SDS011;67281;48.770;11.440;2023-05-07T11:19:54;3.83;;;2.33;;
78072;SDS011;67281;48.770;11.440;2023-05-07T11:22:35;3.00;;;2.30;;
78072;SDS011;67281;48.770;11.440;2023-05-07T11:25:06;3.47;;;2.20;;
78072;SDS011;67281;48.770;11.440;2023-05-07T11:27:33;4.10;;;2.30;;
78072;SDS011;67281;48.770;11.440;2023-05-07T11:30:00;2.57;;;2.00;;
78072;SDS011;67281;48.770;11.440;2023-05-07T11:32:31;5.30;;;2.20;;
78072;SDS011;67281;48.770;11.440;2023-05-07T11:34:59;2.20;;;2.00;;
78072;SDS011;67281;48.770;11.440;2023-05-07T11:37:27;3.67;;;1.80;;
78072;SDS011;67281;48.770;11.440;2023-05-07T11:40:05;3.40;;;1.97;;
78072;SDS011;67281;48.770;11.440;2023-05-07T11:42:35;3.07;;;2.00;;
78072;SDS011;67281;48.770;11.440;2023-05-07T11:45:06;2.73;;;2.33;;
78072;SDS011;67281;48.770;11.440;2023-05-07T11:47:34;4.57;;;2.43;;
78072;SDS011;67281;48.770;11.440;2023-05-07T11:50:05;4.53;;;1.90;;
78072;SDS011;67281;48.770;11.440;2023-05-07T11:52:34;3.53;;;2.20;;
78072;SDS011;67281;48.770;11.440;2023-05-07T11:55:02;2.47;;;1.90;;
78072;SDS011;67281;48.770;11.440;2023-05-07T11:57:32;2.00;;;1.80;;
78072;SDS011;67281;48.770;11.440;2023-05-07T12:00:00;3.23;;;1.90;;
78072;SDS011;67281;48.770;11.440;2023-05-07T12:02:28;1.83;;;1.53;;
78072;SDS011;67281;48.770;11.440;2023-05-07T12:04:55;2.22;;;1.83;;
78072;SDS011;67281;48.770;11.440;2023-05-07T12:07:23;3.37;;;1.80;;
78072;SDS011;67281;48.770;11.440;2023-05-07T12:09:50;4.90;;;2.40;;
78072;SDS011;67281;48.770;11.440;2023-05-07T12:12:17;1.97;;;1.87;;
78072;SDS011;67281;48.770;11.440;2023-05-07T12:14:44;3.40;;;1.90;;
78072;SDS011;67281;48.770;11.440;2023-05-07T12:17:13;1.60;;;1.50;;
78072;SDS011;67281;48.770;11.440;2023-05-07T12:19:41;2.08;;;1.90;;
78072;SDS011;67281;48.770;11.440;2023-05-07T12:22:09;2.80;;;2.03;;
78072;SDS011;67281;48.770;11.440;2023-05-07T12:27:13;2.00;;;1.80;;
78072;SDS011;67281;48.770;11.440;2023-05-07T12:29:43;2.10;;;1.90;;
78072;SDS011;67281;48.770;11.440;2023-05-07T12:32:14;2.45;;;2.10;;
78072;SDS011;67281;48.770;11.440;2023-05-07T12:34:42;4.70;;;1.90;;
78072;SDS011;67281;48.770;11.440;2023-05-07T12:37:11;2.47;;;1.90;;
78072;SDS011;67281;48.770;11.440;2023-05-07T12:39:48;2.13;;;1.90;;
78072;SDS011;67281;48.770;11.440;2023-05-07T12:42:16;2.80;;;2.10;;
78072;SDS011;67281;48.770;11.440;2023-05-07T12:44:46;2.58;;;1.90;;
78072;SDS011;67281;48.770;11.440;2023-05-07T12:47:14;3.70;;;2.00;;
78072;SDS011;67281;48.770;11.440;2023-05-07T12:49:43;2.13;;;1.90;;
78072;SDS011;67281;48.770;11.440;2023-05-07T12:52:12;2.13;;;1.93;;
78072;SDS011;67281;48.770;11.440;2023-05-07T12:54:39;2.40;;;1.75;;
78072;SDS011;67281;48.770;11.440;2023-05-07T12:57:07;2.20;;;1.60;;
78072;SDS011;67281;48.770;11.440;2023-05-07T12:59:38;3.13;;;2.03;;
78072;SDS011;67281;48.770;11.440;2023-05-07T13:02:07;1.80;;;1.70;;
78072;SDS011;67281;48.770;11.440;2023-05-07T13:04:34;3.28;;;2.13;;
78072;SDS011;67281;48.770;11.440;2023-05-07T13:07:02;2.03;;;1.90;;
78072;SDS011;67281;48.770;11.440;2023-05-07T13:09:29;2.03;;;1.70;;
78072;SDS011;67281;48.770;11.440;2023-05-07T13:11:57;1.70;;;1.60;;
78072;SDS011;67281;48.770;11.440;2023-05-07T13:14:27;2.50;;;1.60;;
78072;SDS011;67281;48.770;11.440;2023-05-07T13:16:54;2.57;;;2.00;;
78072;SDS011;67281;48.770;11.440;2023-05-07T13:19:21;1.80;;;1.67;;
78072;SDS011;67281;48.770;11.440;2023-05-07T13:21:48;3.90;;;1.73;;
78072;SDS011;67281;48.770;11.440;2023-05-07T13:24:16;2.15;;;1.85;;
78072;SDS011;67281;48.770;11.440;2023-05-07T13:26:43;5.60;;;1.63;;
78072;SDS011;67281;48.770;11.440;2023-05-07T13:29:11;2.38;;;1.50;;
78072;SDS011;67281;48.770;11.440;2023-05-07T13:31:38;2.78;;;1.90;;
78072;SDS011;67281;48.770;11.440;2023-05-07T13:34:09;2.55;;;1.80;;
78072;SDS011;67281;48.770;11.440;2023-05-07T13:36:36;2.15;;;1.75;;
78072;SDS011;67281;48.770;11.440;2023-05-07T13:39:06;5.28;;;2.20;;
78072;SDS011;67281;48.770;11.440;2023-05-07T13:41:33;4.43;;;1.77;;
78072;SDS011;67281;48.770;11.440;2023-05-07T13:43:59;2.25;;;1.67;;
78072;SDS011;67281;48.770;11.440;2023-05-07T13:46:26;4.13;;;1.73;;
78072;SDS011;67281;48.770;11.440;2023-05-07T13:48:54;2.22;;;1.70;;
78072;SDS011;67281;48.770;11.440;2023-05-07T13:51:21;2.47;;;1.67;;
78072;SDS011;67281;48.770;11.440;2023-05-07T13:53:48;2.55;;;1.98;;
78072;SDS011;67281;48.770;11.440;2023-05-07T13:56:15;2.80;;;1.88;;
78072;SDS011;67281;48.770;11.440;2023-05-07T13:58:42;2.13;;;1.67;;
78072;SDS011;67281;48.770;11.440;2023-05-07T14:01:24;2.10;;;1.60;;
78072;SDS011;67281;48.770;11.440;2023-05-07T14:03:51;2.15;;;1.67;;
78072;SDS011;67281;48.770;11.440;2023-05-07T14:06:18;5.15;;;2.97;;
78072;SDS011;67281;48.770;11.440;2023-05-07T14:08:45;2.22;;;1.70;;
78072;SDS011;67281;48.770;11.440;2023-05-07T14:11:15;2.63;;;1.60;;
78072;SDS011;67281;48.770;11.440;2023-05-07T14:13:41;3.50;;;1.70;;
78072;SDS011;67281;48.770;11.440;2023-05-07T14:16:08;3.80;;;1.52;;
78072;SDS011;67281;48.770;11.440;2023-05-07T14:18:35;1.50;;;1.40;;
78072;SDS011;67281;48.770;11.440;2023-05-07T14:21:04;1.90;;;1.50;;
78072;SDS011;67281;48.770;11.440;2023-05-07T14:23:32;2.00;;;1.50;;
78072;SDS011;67281;48.770;11.440;2023-05-07T14:25:59;1.73;;;1.50;;
78072;SDS011;67281;48.770;11.440;2023-05-07T14:28:26;2.15;;;1.48;;
78072;SDS011;67281;48.770;11.440;2023-05-07T14:30:52;1.65;;;1.55;;
78072;SDS011;67281;48.770;11.440;2023-05-07T14:33:19;1.30;;;1.20;;
78072;SDS011;67281;48.770;11.440;2023-05-07T14:35:46;1.33;;;1.23;;
78072;SDS011;67281;48.770;11.440;2023-05-07T14:38:15;1.85;;;1.60;;
78072;SDS011;67281;48.770;11.440;2023-05-07T14:40:42;1.45;;;1.20;;
78072;SDS011;67281;48.770;11.440;2023-05-07T14:43:08;1.80;;;1.70;;
78072;SDS011;67281;48.770;11.440;2023-05-07T14:45:35;2.30;;;1.70;;
78072;SDS011;67281;48.770;11.440;2023-05-07T14:48:03;1.65;;;1.55;;
78072;SDS011;67281;48.770;11.440;2023-05-07T14:50:30;1.45;;;1.35;;
78072;SDS011;67281;48.770;11.440;2023-05-07T14:52:56;2.30;;;1.40;;
78072;SDS011;67281;48.770;11.440;2023-05-07T14:55:23;1.50;;;1.40;;
78072;SDS011;67281;48.770;11.440;2023-05-07T14:57:50;2.50;;;1.95;;